Time,TemperatureF,DewpointF,PressureIn,WindDirection,WindDirectionDegrees,WindSpeedMPH,WindSpeedGustMPH,Humidity,HourlyPrecipIn,Conditions,Clouds,dailyrainin,SoftwareType,DateUTC
2013-02-20 00:02:00,34.0,25.0,30.18,NW,309,0.0,0.0,68,0.00,,,0.21,,2013-02-20 05:02:00,
2013-02-20 00:22:00,34.0,25.0,30.19,NW,309,0.0,0.0,69,0.00,,,0.21,,2013-02-20 05:22:00,
2013-02-20 00:32:00,33.0,23.0,30.19,NW,309,0.0,0.0,67,0.00,,,0.21,,2013-02-20 05:32:00,
2013-02-20 00:43:00,33.0,23.0,30.19,NW,309,0.0,0.0,67,0.00,,,0.21,,2013-02-20 05:43:00,
2013-02-20 00:52:00,33.0,24.0,30.19,NW,309,0.0,0.0,68,0.00,,,0.21,,2013-02-20 05:52:00,
2013-02-20 01:01:00,33.0,24.0,30.18,NW,309,0.0,0.0,70,0.00,,,0.21,,2013-02-20 06:01:00,
2013-02-20 01:11:00,32.0,25.0,30.17,NW,309,0.0,0.0,74,0.00,,,0.21,,2013-02-20 06:11:00,
2013-02-20 01:21:00,32.0,25.0,30.17,NW,309,0.0,0.0,74,0.00,,,0.21,,2013-02-20 06:21:00,
2013-02-20 01:32:00,31.0,24.0,30.17,NW,309,0.0,0.0,76,0.00,,,0.21,,2013-02-20 06:32:00,
2013-02-20 02:32:00,30.0,25.0,30.18,NW,309,0.0,0.0,81,0.00,,,0.14,,2013-02-20 07:32:00,
2013-02-20 03:32:00,29.0,25.0,30.18,NW,309,0.0,0.0,85,0.00,,,0.06,,2013-02-20 08:32:00,
2013-02-20 04:02:00,29.0,25.0,30.18,NW,309,0.0,0.0,85,0.00,,,0.02,,2013-02-20 09:02:00,
2013-02-20 04:21:00,29.0,23.0,30.19,NW,309,0.0,0.0,79,0.00,,,0.02,,2013-02-20 09:21:00,
2013-02-20 04:32:00,29.0,24.0,30.18,NW,309,0.0,0.0,81,0.00,,,0.01,,2013-02-20 09:32:00,
2013-02-20 04:42:00,29.0,24.0,30.18,NW,309,0.0,0.0,81,0.00,,,0.01,,2013-02-20 09:42:00,
2013-02-20 04:51:00,29.0,24.0,30.18,NW,309,0.0,0.0,81,0.00,,,0.01,,2013-02-20 09:51:00,
2013-02-20 05:01:00,29.0,24.0,30.18,NW,309,0.0,0.0,81,0.00,,,0.01,,2013-02-20 10:01:00,
2013-02-20 05:12:00,29.0,24.0,30.18,NW,309,0.0,0.0,81,0.00,,,0.01,,2013-02-20 10:12:00,
2013-02-20 05:22:00,28.0,25.0,30.19,NW,309,0.0,0.0,90,0.00,,,0.01,,2013-02-20 10:22:00,
2013-02-20 06:32:00,27.0,25.0,30.21,NW,309,0.0,0.0,91,0.00,,,0.01,,2013-02-20 11:32:00,
2013-02-20 06:52:00,27.0,25.0,30.21,NW,309,0.0,0.0,92,0.00,,,0.01,,2013-02-20 11:52:00,
2013-02-20 08:02:00,26.0,24.0,30.22,NW,309,0.0,0.0,91,0.00,,,0.00,,2013-02-20 13:02:00,
2013-02-20 08:20:00,28.0,23.0,30.23,NW,309,0.0,0.0,81,0.00,,,0.00,,2013-02-20 13:20:00,
2013-02-20 08:32:00,28.0,23.0,30.23,NW,309,0.0,0.0,81,0.00,,,0.00,,2013-02-20 13:32:00,
2013-02-20 08:42:00,28.0,23.0,30.23,NW,309,0.0,0.0,81,0.00,,,0.00,,2013-02-20 13:42:00,
2013-02-20 08:52:00,28.0,23.0,30.23,NW,309,0.0,0.0,81,0.00,,,0.00,,2013-02-20 13:52:00,
2013-02-20 09:01:00,28.0,23.0,30.23,NW,309,0.0,0.0,81,0.00,,,0.00,,2013-02-20 14:01:00,
2013-02-20 09:11:00,28.0,23.0,30.23,NW,309,0.0,0.0,81,0.00,,,0.00,,2013-02-20 14:11:00,
2013-02-20 09:32:00,31.0,22.0,30.25,SW,236,1.0,5.0,69,0.00,,,0.00,,2013-02-20 14:32:00,
2013-02-20 09:42:00,32.0,21.0,30.24,WSW,241,0.0,3.0,63,0.00,,,0.00,,2013-02-20 14:42:00,
2013-02-20 09:52:00,32.0,21.0,30.24,WSW,241,0.0,3.0,63,0.00,,,0.00,,2013-02-20 14:52:00,
2013-02-20 10:02:00,32.0,21.0,30.24,WSW,241,0.0,3.0,63,0.00,,,0.00,,2013-02-20 15:02:00,
2013-02-20 10:11:00,32.0,21.0,30.24,WSW,241,0.0,3.0,63,0.00,,,0.00,,2013-02-20 15:11:00,
2013-02-20 10:22:00,32.0,21.0,30.24,WSW,241,0.0,3.0,63,0.00,,,0.00,,2013-02-20 15:22:00,
2013-02-20 10:32:00,35.0,19.0,30.25,WSW,246,0.0,0.0,52,0.00,,,0.00,,2013-02-20 15:32:00,
2013-02-20 10:42:00,35.0,19.0,30.25,WSW,240,0.0,3.0,52,0.00,,,0.00,,2013-02-20 15:42:00,
2013-02-20 10:52:00,35.0,19.0,30.25,WSW,240,0.0,3.0,52,0.00,,,0.00,,2013-02-20 15:52:00,
2013-02-20 11:01:00,37.0,19.0,30.26,West,275,0.0,5.0,48,0.00,,,0.00,,2013-02-20 16:01:00,
2013-02-20 11:12:00,37.0,19.0,30.26,West,275,0.0,5.0,48,0.00,,,0.00,,2013-02-20 16:12:00,
2013-02-20 11:21:00,37.0,19.0,30.26,West,275,0.0,5.0,48,0.00,,,0.00,,2013-02-20 16:21:00,
2013-02-20 11:32:00,39.0,19.0,30.26,WSW,250,1.0,5.0,44,0.00,,,0.00,,2013-02-20 16:32:00,
2013-02-20 11:40:00,40.0,20.0,30.25,WNW,292,0.0,8.0,44,0.00,,,0.00,,2013-02-20 16:40:00,
2013-02-20 11:42:00,39.0,19.0,30.26,WSW,250,1.0,5.0,44,0.00,,,0.00,,2013-02-20 16:42:00,
2013-02-20 11:52:00,39.0,19.0,30.26,WSW,250,1.0,5.0,44,0.00,,,0.00,,2013-02-20 16:52:00,
2013-02-20 12:01:00,40.0,20.0,30.25,WNW,292,0.0,8.0,44,0.00,,,0.00,,2013-02-20 17:01:00,
2013-02-20 12:11:00,40.0,20.0,30.25,WNW,292,0.0,8.0,44,0.00,,,0.00,,2013-02-20 17:11:00,
2013-02-20 12:21:00,40.0,20.0,30.25,WNW,292,0.0,8.0,44,0.00,,,0.00,,2013-02-20 17:21:00,
2013-02-20 12:32:00,40.0,20.0,30.25,WNW,292,0.0,8.0,44,0.00,,,0.00,,2013-02-20 17:32:00,
2013-02-20 13:52:00,42.0,16.0,30.21,SSW,213,0.0,7.0,34,0.00,,,0.00,,2013-02-20 18:52:00,
2013-02-20 14:01:00,42.0,18.0,30.20,NW,308,0.0,7.0,37,0.00,,,0.00,,2013-02-20 19:01:00,
2013-02-20 14:11:00,42.0,18.0,30.20,NW,308,0.0,7.0,37,0.00,,,0.00,,2013-02-20 19:11:00,
2013-02-20 14:21:00,42.0,18.0,30.20,NW,308,0.0,7.0,37,0.00,,,0.00,,2013-02-20 19:21:00,
2013-02-20 14:31:00,44.0,19.0,30.20,ENE,71,0.0,0.0,36,0.00,,,0.00,,2013-02-20 19:31:00,
2013-02-20 14:41:00,44.0,19.0,30.20,ENE,71,0.0,0.0,36,0.00,,,0.00,,2013-02-20 19:41:00,
2013-02-20 14:50:00,43.0,17.0,30.20,WNW,288,0.0,3.0,35,0.00,,,0.00,,2013-02-20 19:50:00,
2013-02-20 14:52:00,44.0,19.0,30.20,ENE,71,0.0,0.0,36,0.00,,,0.00,,2013-02-20 19:52:00,
2013-02-20 15:01:00,43.0,17.0,30.20,WNW,288,0.0,3.0,35,0.00,,,0.00,,2013-02-20 20:01:00,
2013-02-20 15:11:00,43.0,17.0,30.20,WNW,288,0.0,3.0,35,0.00,,,0.00,,2013-02-20 20:11:00,
2013-02-20 15:21:00,43.0,17.0,30.20,WNW,288,0.0,3.0,35,0.00,,,0.00,,2013-02-20 20:21:00,
2013-02-20 15:31:00,43.0,17.0,30.20,WNW,288,0.0,3.0,35,0.00,,,0.00,,2013-02-20 20:31:00,
2013-02-20 15:41:00,43.0,17.0,30.20,WNW,288,0.0,3.0,35,0.00,,,0.00,,2013-02-20 20:41:00,
2013-02-20 17:00:00,40.0,17.0,30.22,WSW,258,0.0,0.0,39,0.00,,,0.00,,2013-02-20 22:00:00,
2013-02-20 17:02:00,41.0,19.0,30.22,WSW,258,0.0,0.0,40,0.00,,,0.00,,2013-02-20 22:02:00,
2013-02-20 17:11:00,40.0,17.0,30.22,WSW,258,0.0,0.0,39,0.00,,,0.00,,2013-02-20 22:11:00,
2013-02-20 17:21:00,40.0,17.0,30.22,WSW,258,0.0,0.0,39,0.00,,,0.00,,2013-02-20 22:21:00,
2013-02-20 17:31:00,40.0,17.0,30.22,WSW,258,0.0,0.0,39,0.00,,,0.00,,2013-02-20 22:31:00,
2013-02-20 17:42:00,40.0,17.0,30.22,WSW,258,0.0,0.0,39,0.00,,,0.00,,2013-02-20 22:42:00,
2013-02-20 17:52:00,40.0,17.0,30.22,WSW,258,0.0,0.0,39,0.00,,,0.00,,2013-02-20 22:52:00,
2013-02-20 18:30:00,38.0,20.0,30.21,WSW,258,0.0,0.0,47,0.00,,,0.00,,2013-02-20 23:30:00,
2013-02-20 18:53:00,38.0,20.0,30.21,WSW,258,0.0,0.0,47,0.00,,,0.00,,2013-02-20 23:53:00,
2013-02-20 19:03:00,38.0,20.0,30.21,WSW,258,0.0,0.0,47,0.00,,,0.00,,2013-02-21 00:03:00,
2013-02-20 19:11:00,38.0,20.0,30.21,WSW,258,0.0,0.0,47,0.00,,,0.00,,2013-02-21 00:11:00,
2013-02-20 19:22:00,38.0,20.0,30.21,WSW,258,0.0,0.0,47,0.00,,,0.00,,2013-02-21 00:22:00,
2013-02-20 19:42:00,35.0,21.0,30.22,WSW,258,0.0,0.0,57,0.00,,,0.00,,2013-02-21 00:42:00,
2013-02-20 19:52:00,35.0,21.0,30.22,WSW,258,0.0,0.0,57,0.00,,,0.00,,2013-02-21 00:52:00,
2013-02-20 20:01:00,34.0,22.0,30.21,WSW,258,0.0,0.0,60,0.00,,,0.00,,2013-02-21 01:01:00,
2013-02-20 20:21:00,33.0,21.0,30.22,WSW,258,0.0,0.0,62,0.00,,,0.00,,2013-02-21 01:21:00,
2013-02-20 20:32:00,33.0,21.0,30.22,WSW,258,0.0,0.0,62,0.00,,,0.00,,2013-02-21 01:32:00,
2013-02-20 20:52:00,33.0,20.0,30.23,WSW,258,0.0,0.0,58,0.00,,,0.00,,2013-02-21 01:52:00,
2013-02-20 21:01:00,33.0,20.0,30.23,WSW,258,0.0,0.0,58,0.00,,,0.00,,2013-02-21 02:01:00,
2013-02-20 21:11:00,33.0,20.0,30.23,WSW,258,0.0,0.0,58,0.00,,,0.00,,2013-02-21 02:11:00,
2013-02-20 21:21:00,34.0,20.0,30.22,WSW,258,0.0,0.0,57,0.00,,,0.00,,2013-02-21 02:21:00,
2013-02-20 21:32:00,33.0,21.0,30.22,WSW,258,0.0,0.0,60,0.00,,,0.00,,2013-02-21 02:32:00,
2013-02-20 21:42:00,33.0,21.0,30.22,WSW,258,0.0,0.0,60,0.00,,,0.00,,2013-02-21 02:42:00,
2013-02-20 21:52:00,33.0,21.0,30.22,WSW,258,0.0,0.0,60,0.00,,,0.00,,2013-02-21 02:52:00,
2013-02-20 22:02:00,31.0,22.0,30.22,WSW,258,0.0,0.0,68,0.00,,,0.00,,2013-02-21 03:02:00,
2013-02-20 22:32:00,30.0,22.0,30.22,WSW,258,0.0,0.0,71,0.00,,,0.00,,2013-02-21 03:32:00,
2013-02-20 22:51:00,30.0,22.0,30.23,WSW,258,0.0,0.0,71,0.00,,,0.00,,2013-02-21 03:51:00,
2013-02-20 23:01:00,30.0,22.0,30.22,WSW,258,0.0,0.0,72,0.00,,,0.00,,2013-02-21 04:01:00,
2013-02-20 23:32:00,29.0,23.0,30.22,WSW,258,0.0,0.0,78,0.00,,,0.00,,2013-02-21 04:32:00,